sensor_id;sensor_type;location;lat;lon;timestamp;P1;durP1;ratioP1;P2;durP2;ratioP2
59786;SDS011;45672;51.612;5.536;2023-09-19T00:00:57;13.55;;;2.95;;
59786;SDS011;45672;51.612;5.536;2023-09-19T00:03:23;12.80;;;2.50;;
59786;SDS011;45672;51.612;5.536;2023-09-19T00:05:50;12.35;;;2.78;;
59786;SDS011;45672;51.612;5.536;2023-09-19T00:08:16;15.40;;;3.35;;
59786;SDS011;45672;51.612;5.536;2023-09-19T00:10:42;6.25;;;2.35;;
59786;SDS011;45672;51.612;5.536;2023-09-19T00:13:08;11.68;;;2.70;;
59786;SDS011;45672;51.612;5.536;2023-09-19T00:15:40;17.70;;;3.35;;
59786;SDS011;45672;51.612;5.536;2023-09-19T00:18:08;9.32;;;2.60;;
59786;SDS011;45672;51.612;5.536;2023-09-19T00:20:37;10.32;;;2.63;;
59786;SDS011;45672;51.612;5.536;2023-09-19T00:23:03;12.10;;;3.00;;
59786;SDS011;45672;51.612;5.536;2023-09-19T00:25:37;11.75;;;2.53;;
59786;SDS011;45672;51.612;5.536;2023-09-19T00:28:06;13.90;;;2.47;;
59786;SDS011;45672;51.612;5.536;2023-09-19T00:30:33;13.77;;;2.97;;
59786;SDS011;45672;51.612;5.536;2023-09-19T00:32:58;12.27;;;2.53;;
59786;SDS011;45672;51.612;5.536;2023-09-19T00:35:25;17.02;;;2.70;;
59786;SDS011;45672;51.612;5.536;2023-09-19T00:37:51;8.68;;;2.10;;
59786;SDS011;45672;51.612;5.536;2023-09-19T00:40:17;12.40;;;2.25;;
59786;SDS011;45672;51.612;5.536;2023-09-19T00:42:43;14.10;;;2.92;;
59786;SDS011;45672;51.612;5.536;2023-09-19T00:45:09;12.65;;;3.00;;
59786;SDS011;45672;51.612;5.536;2023-09-19T00:47:57;14.52;;;2.65;;
59786;SDS011;45672;51.612;5.536;2023-09-19T00:50:23;14.32;;;2.97;;
59786;SDS011;45672;51.612;5.536;2023-09-19T00:52:52;13.45;;;2.67;;
59786;SDS011;45672;51.612;5.536;2023-09-19T00:55:20;11.95;;;2.67;;
59786;SDS011;45672;51.612;5.536;2023-09-19T00:57:46;14.60;;;2.72;;
59786;SDS011;45672;51.612;5.536;2023-09-19T01:00:14;11.25;;;3.15;;
59786;SDS011;45672;51.612;5.536;2023-09-19T01:02:44;15.35;;;3.13;;
59786;SDS011;45672;51.612;5.536;2023-09-19T01:05:11;16.15;;;2.83;;
59786;SDS011;45672;51.612;5.536;2023-09-19T01:07:37;11.32;;;2.70;;
59786;SDS011;45672;51.612;5.536;2023-09-19T01:10:06;17.13;;;2.53;;
59786;SDS011;45672;51.612;5.536;2023-09-19T01:21:00;13.50;;;2.50;;
59786;SDS011;45672;51.612;5.536;2023-09-19T01:31:44;12.48;;;2.50;;
59786;SDS011;45672;51.612;5.536;2023-09-19T01:34:10;13.57;;;2.63;;
59786;SDS011;45672;51.612;5.536;2023-09-19T01:36:36;15.27;;;2.97;;
59786;SDS011;45672;51.612;5.536;2023-09-19T01:39:10;9.15;;;2.58;;
59786;SDS011;45672;51.612;5.536;2023-09-19T01:44:44;10.93;;;2.20;;
59786;SDS011;45672;51.612;5.536;2023-09-19T01:47:23;12.05;;;2.70;;
59786;SDS011;45672;51.612;5.536;2023-09-19T01:49:53;11.63;;;2.65;;
59786;SDS011;45672;51.612;5.536;2023-09-19T01:52:27;13.13;;;2.45;;
59786;SDS011;45672;51.612;5.536;2023-09-19T01:54:56;12.63;;;2.72;;
59786;SDS011;45672;51.612;5.536;2023-09-19T01:57:36;10.90;;;2.60;;
59786;SDS011;45672;51.612;5.536;2023-09-19T02:00:09;9.32;;;2.58;;
59786;SDS011;45672;51.612;5.536;2023-09-19T02:02:37;10.85;;;2.60;;
59786;SDS011;45672;51.612;5.536;2023-09-19T02:05:05;7.43;;;2.42;;
59786;SDS011;45672;51.612;5.536;2023-09-19T02:07:31;12.23;;;2.60;;
59786;SDS011;45672;51.612;5.536;2023-09-19T02:09:59;14.02;;;2.72;;
59786;SDS011;45672;51.612;5.536;2023-09-19T02:12:25;11.35;;;2.40;;
59786;SDS011;45672;51.612;5.536;2023-09-19T02:14:51;21.88;;;2.70;;
59786;SDS011;45672;51.612;5.536;2023-09-19T02:17:16;18.95;;;3.17;;
59786;SDS011;45672;51.612;5.536;2023-09-19T02:19:42;8.05;;;2.35;;
59786;SDS011;45672;51.612;5.536;2023-09-19T02:22:07;11.70;;;2.72;;
59786;SDS011;45672;51.612;5.536;2023-09-19T02:24:35;7.53;;;2.55;;
59786;SDS011;45672;51.612;5.536;2023-09-19T02:27:03;14.75;;;2.38;;
59786;SDS011;45672;51.612;5.536;2023-09-19T02:29:30;7.82;;;2.20;;
59786;SDS011;45672;51.612;5.536;2023-09-19T02:31:55;7.35;;;2.13;;
59786;SDS011;45672;51.612;5.536;2023-09-19T02:34:21;12.23;;;2.80;;
59786;SDS011;45672;51.612;5.536;2023-09-19T02:36:47;13.10;;;2.63;;
59786;SDS011;45672;51.612;5.536;2023-09-19T02:39:12;10.48;;;2.53;;
59786;SDS011;45672;51.612;5.536;2023-09-19T02:41:38;11.23;;;2.67;;
59786;SDS011;45672;51.612;5.536;2023-09-19T02:44:03;6.05;;;2.20;;
59786;SDS011;45672;51.612;5.536;2023-09-19T02:46:32;10.32;;;2.45;;
59786;SDS011;45672;51.612;5.536;2023-09-19T02:49:01;11.10;;;2.25;;
59786;SDS011;45672;51.612;5.536;2023-09-19T02:51:28;10.57;;;2.55;;
59786;SDS011;45672;51.612;5.536;2023-09-19T02:53:53;8.07;;;2.28;;
59786;SDS011;45672;51.612;5.536;2023-09-19T02:56:19;12.88;;;2.58;;
59786;SDS011;45672;51.612;5.536;2023-09-19T02:58:45;9.05;;;2.38;;
59786;SDS011;45672;51.612;5.536;2023-09-19T03:01:10;7.25;;;2.40;;
59786;SDS011;45672;51.612;5.536;2023-09-19T03:03:39;11.57;;;2.70;;
59786;SDS011;45672;51.612;5.536;2023-09-19T03:06:05;8.95;;;2.40;;
59786;SDS011;45672;51.612;5.536;2023-09-19T03:08:33;10.38;;;2.60;;
59786;SDS011;45672;51.612;5.536;2023-09-19T03:11:01;11.80;;;2.63;;
59786;SDS011;45672;51.612;5.536;2023-09-19T03:13:28;8.13;;;2.53;;
59786;SDS011;45672;51.612;5.536;2023-09-19T03:15:56;9.95;;;2.53;;
59786;SDS011;45672;51.612;5.536;2023-09-19T03:18:23;10.60;;;2.47;;
59786;SDS011;45672;51.612;5.536;2023-09-19T03:20:55;7.95;;;2.50;;
59786;SDS011;45672;51.612;5.536;2023-09-19T03:23:21;8.35;;;2.25;;
59786;SDS011;45672;51.612;5.536;2023-09-19T03:25:46;11.18;;;2.15;;
59786;SDS011;45672;51.612;5.536;2023-09-19T03:28:12;10.48;;;2.28;;
59786;SDS011;45672;51.612;5.536;2023-09-19T03:30:38;10.25;;;2.45;;
59786;SDS011;45672;51.612;5.536;2023-09-19T03:33:03;10.27;;;2.95;;
59786;SDS011;45672;51.612;5.536;2023-09-19T03:35:29;7.57;;;2.47;;
59786;SDS011;45672;51.612;5.536;2023-09-19T03:37:55;8.73;;;2.42;;
59786;SDS011;45672;51.612;5.536;2023-09-19T03:40:20;11.63;;;2.25;;
59786;SDS011;45672;51.612;5.536;2023-09-19T03:42:46;12.73;;;2.60;;
59786;SDS011;45672;51.612;5.536;2023-09-19T03:45:13;13.02;;;2.55;;
59786;SDS011;45672;51.612;5.536;2023-09-19T03:47:41;6.82;;;2.65;;
59786;SDS011;45672;51.612;5.536;2023-09-19T03:50:06;7.93;;;1.90;;
59786;SDS011;45672;51.612;5.536;2023-09-19T03:52:33;10.75;;;2.28;;
59786;SDS011;45672;51.612;5.536;2023-09-19T03:54:59;10.70;;;2.60;;
59786;SDS011;45672;51.612;5.536;2023-09-19T03:57:25;9.13;;;2.33;;
59786;SDS011;45672;51.612;5.536;2023-09-19T03:59:50;11.55;;;2.63;;
59786;SDS011;45672;51.612;5.536;2023-09-19T04:02:18;14.07;;;2.78;;
59786;SDS011;45672;51.612;5.536;2023-09-19T04:04:50;10.15;;;2.35;;
59786;SDS011;45672;51.612;5.536;2023-09-19T04:07:16;7.78;;;2.15;;
59786;SDS011;45672;51.612;5.536;2023-09-19T04:09:42;11.52;;;2.55;;
59786;SDS011;45672;51.612;5.536;2023-09-19T04:12:07;9.27;;;2.13;;
59786;SDS011;45672;51.612;5.536;2023-09-19T04:14:36;9.32;;;2.42;;
59786;SDS011;45672;51.612;5.536;2023-09-19T04:17:01;12.35;;;2.78;;
59786;SDS011;45672;51.612;5.536;2023-09-19T04:19:27;13.13;;;2.10;;
59786;SDS011;45672;51.612;5.536;2023-09-19T04:21:52;12.77;;;2.58;;
59786;SDS011;45672;51.612;5.536;2023-09-19T04:24:17;9.23;;;2.50;;
59786;SDS011;45672;51.612;5.536;2023-09-19T04:26:44;8.32;;;2.30;;
59786;SDS011;45672;51.612;5.536;2023-09-19T04:29:10;12.73;;;2.30;;
59786;SDS011;45672;51.612;5.536;2023-09-19T04:31:36;15.90;;;2.60;;
59786;SDS011;45672;51.612;5.536;2023-09-19T04:34:03;9.05;;;2.30;;
59786;SDS011;45672;51.612;5.536;2023-09-19T04:36:28;15.10;;;2.95;;
59786;SDS011;45672;51.612;5.536;2023-09-19T04:38:54;10.38;;;2.10;;
59786;SDS011;45672;51.612;5.536;2023-09-19T04:41:20;8.43;;;2.33;;
59786;SDS011;45672;51.612;5.536;2023-09-19T04:43:45;7.35;;;2.53;;
59786;SDS011;45672;51.612;5.536;2023-09-19T04:46:10;15.00;;;2.35;;
59786;SDS011;45672;51.612;5.536;2023-09-19T04:48:39;15.10;;;2.53;;
59786;SDS011;45672;51.612;5.536;2023-09-19T04:51:05;17.88;;;2.65;;
59786;SDS011;45672;51.612;5.536;2023-09-19T04:53:30;10.68;;;2.50;;
59786;SDS011;45672;51.612;5.536;2023-09-19T04:55:55;13.57;;;2.30;;
59786;SDS011;45672;51.612;5.536;2023-09-19T04:58:21;11.25;;;2.50;;
59786;SDS011;45672;51.612;5.536;2023-09-19T05:00:47;12.95;;;2.63;;
59786;SDS011;45672;51.612;5.536;2023-09-19T05:03:13;10.00;;;2.25;;
59786;SDS011;45672;51.612;5.536;2023-09-19T05:05:38;13.82;;;2.90;;
59786;SDS011;45672;51.612;5.536;2023-09-19T05:08:07;10.00;;;2.33;;
59786;SDS011;45672;51.612;5.536;2023-09-19T05:10:34;14.30;;;2.47;;
59786;SDS011;45672;51.612;5.536;2023-09-19T05:13:02;9.95;;;2.63;;
59786;SDS011;45672;51.612;5.536;2023-09-19T05:15:29;8.65;;;2.38;;
59786;SDS011;45672;51.612;5.536;2023-09-19T05:17:55;7.65;;;2.25;;
59786;SDS011;45672;51.612;5.536;2023-09-19T05:20:21;9.30;;;2.38;;
59786;SDS011;45672;51.612;5.536;2023-09-19T05:22:59;13.60;;;2.78;;
59786;SDS011;45672;51.612;5.536;2023-09-19T05:25:33;11.25;;;2.60;;
59786;SDS011;45672;51.612;5.536;2023-09-19T05:28:04;10.63;;;2.22;;
59786;SDS011;45672;51.612;5.536;2023-09-19T05:30:30;9.85;;;2.33;;
59786;SDS011;45672;51.612;5.536;2023-09-19T05:32:57;10.98;;;2.20;;
59786;SDS011;45672;51.612;5.536;2023-09-19T05:35:23;11.68;;;2.72;;
59786;SDS011;45672;51.612;5.536;2023-09-19T05:37:52;17.73;;;2.53;;
59786;SDS011;45672;51.612;5.536;2023-09-19T05:40:18;13.63;;;2.55;;
59786;SDS011;45672;51.612;5.536;2023-09-19T05:42:44;11.82;;;2.40;;
59786;SDS011;45672;51.612;5.536;2023-09-19T05:45:10;10.98;;;2.50;;
59786;SDS011;45672;51.612;5.536;2023-09-19T05:47:39;12.40;;;2.70;;
59786;SDS011;45672;51.612;5.536;2023-09-19T05:50:06;11.18;;;2.30;;
59786;SDS011;45672;51.612;5.536;2023-09-19T05:52:34;15.55;;;2.40;;
59786;SDS011;45672;51.612;5.536;2023-09-19T05:55:05;7.97;;;2.30;;
59786;SDS011;45672;51.612;5.536;2023-09-19T05:57:32;11.18;;;2.63;;
59786;SDS011;45672;51.612;5.536;2023-09-19T05:59:58;6.38;;;2.05;;
59786;SDS011;45672;51.612;5.536;2023-09-19T06:02:23;10.18;;;2.65;;
59786;SDS011;45672;51.612;5.536;2023-09-19T06:04:52;12.15;;;2.88;;
59786;SDS011;45672;51.612;5.536;2023-09-19T06:07:18;11.48;;;2.30;;
59786;SDS011;45672;51.612;5.536;2023-09-19T06:09:43;9.43;;;2.13;;
59786;SDS011;45672;51.612;5.536;2023-09-19T06:12:08;11.32;;;2.70;;
59786;SDS011;45672;51.612;5.536;2023-09-19T06:14:34;16.27;;;2.80;;
59786;SDS011;45672;51.612;5.536;2023-09-19T06:16:59;10.98;;;2.70;;
59786;SDS011;45672;51.612;5.536;2023-09-19T06:19:25;10.13;;;2.17;;
59786;SDS011;45672;51.612;5.536;2023-09-19T06:21:51;10.90;;;2.78;;
59786;SDS011;45672;51.612;5.536;2023-09-19T06:24:18;12.07;;;2.80;;
59786;SDS011;45672;51.612;5.536;2023-09-19T06:26:44;12.55;;;2.97;;
59786;SDS011;45672;51.612;5.536;2023-09-19T06:29:10;7.82;;;2.40;;
59786;SDS011;45672;51.612;5.536;2023-09-19T06:31:35;14.30;;;2.90;;
59786;SDS011;45672;51.612;5.536;2023-09-19T06:34:00;11.70;;;2.60;;
59786;SDS011;45672;51.612;5.536;2023-09-19T06:36:26;22.02;;;3.33;;
59786;SDS011;45672;51.612;5.536;2023-09-19T06:38:51;17.60;;;2.42;;
59786;SDS011;45672;51.612;5.536;2023-09-19T06:41:17;10.30;;;2.70;;
59786;SDS011;45672;51.612;5.536;2023-09-19T06:43:43;22.02;;;3.08;;
59786;SDS011;45672;51.612;5.536;2023-09-19T06:46:08;14.50;;;3.05;;
59786;SDS011;45672;51.612;5.536;2023-09-19T06:48:34;9.77;;;2.15;;
59786;SDS011;45672;51.612;5.536;2023-09-19T06:51:00;16.20;;;2.85;;
59786;SDS011;45672;51.612;5.536;2023-09-19T06:53:30;13.98;;;2.95;;
59786;SDS011;45672;51.612;5.536;2023-09-19T06:55:57;14.02;;;2.85;;
59786;SDS011;45672;51.612;5.536;2023-09-19T06:58:22;10.75;;;2.88;;
59786;SDS011;45672;51.612;5.536;2023-09-19T07:00:48;12.98;;;2.83;;
59786;SDS011;45672;51.612;5.536;2023-09-19T07:03:15;16.52;;;3.05;;
59786;SDS011;45672;51.612;5.536;2023-09-19T07:05:43;13.13;;;3.00;;
59786;SDS011;45672;51.612;5.536;2023-09-19T07:08:09;9.20;;;2.30;;
59786;SDS011;45672;51.612;5.536;2023-09-19T07:10:38;12.27;;;2.95;;
59786;SDS011;45672;51.612;5.536;2023-09-19T07:13:06;13.27;;;2.75;;
59786;SDS011;45672;51.612;5.536;2023-09-19T07:15:35;12.23;;;2.60;;
59786;SDS011;45672;51.612;5.536;2023-09-19T07:18:04;11.68;;;3.20;;
59786;SDS011;45672;51.612;5.536;2023-09-19T07:20:31;10.63;;;3.00;;
59786;SDS011;45672;51.612;5.536;2023-09-19T07:22:57;11.73;;;3.17;;
59786;SDS011;45672;51.612;5.536;2023-09-19T07:25:24;10.32;;;2.60;;
59786;SDS011;45672;51.612;5.536;2023-09-19T07:27:50;14.55;;;3.15;;
59786;SDS011;45672;51.612;5.536;2023-09-19T07:30:16;11.18;;;2.58;;
59786;SDS011;45672;51.612;5.536;2023-09-19T07:32:42;7.90;;;2.30;;
59786;SDS011;45672;51.612;5.536;2023-09-19T07:35:07;14.60;;;2.97;;
59786;SDS011;45672;51.612;5.536;2023-09-19T07:37:33;19.95;;;3.13;;
59786;SDS011;45672;51.612;5.536;2023-09-19T07:40:04;10.00;;;2.40;;
59786;SDS011;45672;51.612;5.536;2023-09-19T07:42:34;13.35;;;2.70;;
59786;SDS011;45672;51.612;5.536;2023-09-19T07:45:05;10.60;;;2.60;;
59786;SDS011;45672;51.612;5.536;2023-09-19T07:47:32;10.63;;;2.90;;
59786;SDS011;45672;51.612;5.536;2023-09-19T07:49:58;14.75;;;2.53;;
59786;SDS011;45672;51.612;5.536;2023-09-19T07:52:26;10.52;;;2.90;;
59786;SDS011;45672;51.612;5.536;2023-09-19T07:54:52;10.95;;;3.15;;
59786;SDS011;45672;51.612;5.536;2023-09-19T07:57:18;12.63;;;2.80;;
59786;SDS011;45672;51.612;5.536;2023-09-19T07:59:43;11.85;;;3.00;;
59786;SDS011;45672;51.612;5.536;2023-09-19T08:02:08;7.15;;;2.25;;
59786;SDS011;45672;51.612;5.536;2023-09-19T08:04:40;11.73;;;3.13;;
59786;SDS011;45672;51.612;5.536;2023-09-19T08:07:07;12.23;;;3.00;;
59786;SDS011;45672;51.612;5.536;2023-09-19T08:09:33;9.23;;;2.45;;
59786;SDS011;45672;51.612;5.536;2023-09-19T08:11:59;9.90;;;2.50;;
59786;SDS011;45672;51.612;5.536;2023-09-19T08:14:30;12.77;;;2.85;;
59786;SDS011;45672;51.612;5.536;2023-09-19T08:16:58;11.38;;;3.00;;
59786;SDS011;45672;51.612;5.536;2023-09-19T08:19:24;9.95;;;2.40;;
59786;SDS011;45672;51.612;5.536;2023-09-19T08:21:56;13.43;;;2.97;;
59786;SDS011;45672;51.612;5.536;2023-09-19T08:24:26;11.23;;;3.10;;
59786;SDS011;45672;51.612;5.536;2023-09-19T08:26:53;11.88;;;2.58;;
59786;SDS011;45672;51.612;5.536;2023-09-19T08:29:22;10.13;;;2.63;;
59786;SDS011;45672;51.612;5.536;2023-09-19T08:31:52;16.77;;;2.90;;
59786;SDS011;45672;51.612;5.536;2023-09-19T08:34:18;12.75;;;3.08;;
59786;SDS011;45672;51.612;5.536;2023-09-19T08:36:44;15.25;;;3.28;;
59786;SDS011;45672;51.612;5.536;2023-09-19T08:39:10;11.65;;;2.60;;
59786;SDS011;45672;51.612;5.536;2023-09-19T08:41:36;16.55;;;2.65;;
59786;SDS011;45672;51.612;5.536;2023-09-19T08:44:01;10.32;;;2.65;;
59786;SDS011;45672;51.612;5.536;2023-09-19T08:46:27;13.05;;;2.80;;
59786;SDS011;45672;51.612;5.536;2023-09-19T08:49:03;15.27;;;2.47;;
59786;SDS011;45672;51.612;5.536;2023-09-19T08:54:22;12.50;;;2.35;;
59786;SDS011;45672;51.612;5.536;2023-09-19T08:56:51;13.88;;;2.78;;
59786;SDS011;45672;51.612;5.536;2023-09-19T08:59:21;9.25;;;2.90;;
59786;SDS011;45672;51.612;5.536;2023-09-19T09:01:49;13.05;;;2.60;;
59786;SDS011;45672;51.612;5.536;2023-09-19T09:04:18;11.80;;;2.70;;
59786;SDS011;45672;51.612;5.536;2023-09-19T09:06:44;12.38;;;2.90;;
59786;SDS011;45672;51.612;5.536;2023-09-19T09:09:13;12.60;;;2.67;;
59786;SDS011;45672;51.612;5.536;2023-09-19T09:11:39;13.75;;;2.88;;
59786;SDS011;45672;51.612;5.536;2023-09-19T09:14:06;14.38;;;2.95;;
59786;SDS011;45672;51.612;5.536;2023-09-19T09:16:32;12.50;;;2.95;;
59786;SDS011;45672;51.612;5.536;2023-09-19T09:18:58;12.35;;;2.63;;
59786;SDS011;45672;51.612;5.536;2023-09-19T09:21:27;10.38;;;3.25;;
59786;SDS011;45672;51.612;5.536;2023-09-19T09:23:53;10.88;;;2.85;;
59786;SDS011;45672;51.612;5.536;2023-09-19T09:27:04;18.88;;;2.67;;
59786;SDS011;45672;51.612;5.536;2023-09-19T09:29:12;9.32;;;2.70;;
59786;SDS011;45672;51.612;5.536;2023-09-19T09:31:38;12.75;;;2.75;;
59786;SDS011;45672;51.612;5.536;2023-09-19T09:34:04;14.13;;;2.83;;
59786;SDS011;45672;51.612;5.536;2023-09-19T09:36:33;8.15;;;2.67;;
59786;SDS011;45672;51.612;5.536;2023-09-19T09:39:00;9.80;;;2.50;;
59786;SDS011;45672;51.612;5.536;2023-09-19T09:41:40;11.32;;;2.58;;
59786;SDS011;45672;51.612;5.536;2023-09-19T09:44:13;13.23;;;2.67;;
59786;SDS011;45672;51.612;5.536;2023-09-19T09:46:44;8.32;;;2.10;;
59786;SDS011;45672;51.612;5.536;2023-09-19T09:49:22;10.50;;;2.53;;
59786;SDS011;45672;51.612;5.536;2023-09-19T09:52:14;11.43;;;2.72;;
59786;SDS011;45672;51.612;5.536;2023-09-19T10:00:10;11.27;;;3.00;;
59786;SDS011;45672;51.612;5.536;2023-09-19T10:02:36;9.90;;;2.70;;
59786;SDS011;45672;51.612;5.536;2023-09-19T10:05:11;11.10;;;2.50;;
59786;SDS011;45672;51.612;5.536;2023-09-19T10:07:54;9.93;;;2.65;;
59786;SDS011;45672;51.612;5.536;2023-09-19T10:10:32;12.25;;;2.50;;
59786;SDS011;45672;51.612;5.536;2023-09-19T10:13:08;14.20;;;2.83;;
59786;SDS011;45672;51.612;5.536;2023-09-19T10:15:40;11.50;;;2.60;;
59786;SDS011;45672;51.612;5.536;2023-09-19T10:18:11;14.07;;;3.13;;
59786;SDS011;45672;51.612;5.536;2023-09-19T10:20:43;9.93;;;2.53;;
59786;SDS011;45672;51.612;5.536;2023-09-19T10:23:11;11.48;;;2.83;;
59786;SDS011;45672;51.612;5.536;2023-09-19T10:25:43;12.65;;;2.53;;
59786;SDS011;45672;51.612;5.536;2023-09-19T10:28:12;14.85;;;2.85;;
59786;SDS011;45672;51.612;5.536;2023-09-19T10:30:41;12.23;;;2.60;;
59786;SDS011;45672;51.612;5.536;2023-09-19T10:33:12;7.65;;;2.45;;
59786;SDS011;45672;51.612;5.536;2023-09-19T10:35:40;13.25;;;2.55;;
59786;SDS011;45672;51.612;5.536;2023-09-19T10:38:09;9.45;;;2.38;;
59786;SDS011;45672;51.612;5.536;2023-09-19T10:40:37;14.40;;;2.70;;
59786;SDS011;45672;51.612;5.536;2023-09-19T10:43:08;10.20;;;2.78;;
59786;SDS011;45672;51.612;5.536;2023-09-19T10:45:37;10.68;;;2.67;;
59786;SDS011;45672;51.612;5.536;2023-09-19T10:48:05;8.85;;;2.50;;
59786;SDS011;45672;51.612;5.536;2023-09-19T10:50:36;9.75;;;2.42;;
59786;SDS011;45672;51.612;5.536;2023-09-19T10:53:11;12.25;;;2.30;;
59786;SDS011;45672;51.612;5.536;2023-09-19T10:55:38;9.88;;;2.22;;
59786;SDS011;45672;51.612;5.536;2023-09-19T10:58:05;7.63;;;2.20;;
59786;SDS011;45672;51.612;5.536;2023-09-19T11:01:01;11.50;;;2.83;;
59786;SDS011;45672;51.612;5.536;2023-09-19T11:03:37;8.55;;;2.33;;
59786;SDS011;45672;51.612;5.536;2023-09-19T11:30:30;12.50;;;2.55;;
59786;SDS011;45672;51.612;5.536;2023-09-19T11:43:45;7.60;;;2.20;;
59786;SDS011;45672;51.612;5.536;2023-09-19T11:46:11;12.05;;;2.20;;
59786;SDS011;45672;51.612;5.536;2023-09-19T11:48:38;5.03;;;1.60;;
59786;SDS011;45672;51.612;5.536;2023-09-19T11:51:12;9.02;;;1.73;;
59786;SDS011;45672;51.612;5.536;2023-09-19T11:53:51;8.15;;;2.42;;
59786;SDS011;45672;51.612;5.536;2023-09-19T11:56:18;9.88;;;2.00;;
59786;SDS011;45672;51.612;5.536;2023-09-19T11:58:46;5.90;;;1.63;;
59786;SDS011;45672;51.612;5.536;2023-09-19T12:01:14;2.92;;;1.30;;
59786;SDS011;45672;51.612;5.536;2023-09-19T12:03:46;9.20;;;1.48;;
59786;SDS011;45672;51.612;5.536;2023-09-19T12:06:15;8.85;;;1.50;;
59786;SDS011;45672;51.612;5.536;2023-09-19T12:08:42;5.93;;;1.40;;
59786;SDS011;45672;51.612;5.536;2023-09-19T12:11:11;7.45;;;1.50;;
59786;SDS011;45672;51.612;5.536;2023-09-19T12:13:44;8.63;;;1.98;;
59786;SDS011;45672;51.612;5.536;2023-09-19T12:16:15;4.00;;;1.17;;
59786;SDS011;45672;51.612;5.536;2023-09-19T12:18:42;5.20;;;1.38;;
59786;SDS011;45672;51.612;5.536;2023-09-19T12:21:52;4.82;;;1.40;;
59786;SDS011;45672;51.612;5.536;2023-09-19T12:24:07;6.07;;;1.15;;
59786;SDS011;45672;51.612;5.536;2023-09-19T12:26:42;7.38;;;1.30;;
59786;SDS011;45672;51.612;5.536;2023-09-19T12:29:18;7.32;;;1.50;;
59786;SDS011;45672;51.612;5.536;2023-09-19T12:34:32;10.38;;;1.50;;
59786;SDS011;45672;51.612;5.536;2023-09-19T12:39:51;10.45;;;1.65;;
59786;SDS011;45672;51.612;5.536;2023-09-19T12:42:20;8.43;;;1.40;;
59786;SDS011;45672;51.612;5.536;2023-09-19T12:44:49;7.47;;;1.80;;
59786;SDS011;45672;51.612;5.536;2023-09-19T12:47:21;4.28;;;1.30;;
59786;SDS011;45672;51.612;5.536;2023-09-19T12:50:06;9.40;;;1.48;;
59786;SDS011;45672;51.612;5.536;2023-09-19T12:52:35;8.25;;;1.60;;
59786;SDS011;45672;51.612;5.536;2023-09-19T12:55:02;2.50;;;1.10;;
59786;SDS011;45672;51.612;5.536;2023-09-19T12:57:27;4.53;;;1.25;;
59786;SDS011;45672;51.612;5.536;2023-09-19T12:59:53;4.75;;;1.10;;
59786;SDS011;45672;51.612;5.536;2023-09-19T13:02:19;3.35;;;1.40;;
59786;SDS011;45672;51.612;5.536;2023-09-19T13:04:55;4.03;;;1.10;;
59786;SDS011;45672;51.612;5.536;2023-09-19T13:07:44;3.78;;;1.10;;
59786;SDS011;45672;51.612;5.536;2023-09-19T13:10:14;8.77;;;1.40;;
59786;SDS011;45672;51.612;5.536;2023-09-19T13:12:41;2.70;;;1.10;;
59786;SDS011;45672;51.612;5.536;2023-09-19T13:15:13;2.95;;;1.20;;
59786;SDS011;45672;51.612;5.536;2023-09-19T13:17:47;3.05;;;1.08;;
59786;SDS011;45672;51.612;5.536;2023-09-19T13:20:25;2.97;;;1.20;;
59786;SDS011;45672;51.612;5.536;2023-09-19T13:22:57;2.80;;;1.00;;
59786;SDS011;45672;51.612;5.536;2023-09-19T13:25:31;3.63;;;1.20;;
59786;SDS011;45672;51.612;5.536;2023-09-19T13:27:58;6.15;;;1.00;;
59786;SDS011;45672;51.612;5.536;2023-09-19T13:30:25;4.70;;;1.13;;
59786;SDS011;45672;51.612;5.536;2023-09-19T13:32:52;3.55;;;1.20;;
59786;SDS011;45672;51.612;5.536;2023-09-19T13:35:32;7.53;;;1.25;;
59786;SDS011;45672;51.612;5.536;2023-09-19T13:37:57;5.20;;;1.10;;
59786;SDS011;45672;51.612;5.536;2023-09-19T13:40:23;7.25;;;1.10;;
59786;SDS011;45672;51.612;5.536;2023-09-19T13:42:49;5.25;;;1.10;;
59786;SDS011;45672;51.612;5.536;2023-09-19T13:45:18;6.53;;;0.90;;
59786;SDS011;45672;51.612;5.536;2023-09-19T13:47:47;2.17;;;1.02;;
59786;SDS011;45672;51.612;5.536;2023-09-19T13:50:12;5.28;;;1.10;;
59786;SDS011;45672;51.612;5.536;2023-09-19T13:52:37;8.07;;;1.10;;
59786;SDS011;45672;51.612;5.536;2023-09-19T13:55:03;7.97;;;1.25;;
59786;SDS011;45672;51.612;5.536;2023-09-19T13:57:30;11.02;;;1.40;;
59786;SDS011;45672;51.612;5.536;2023-09-19T13:59:56;3.85;;;1.10;;
59786;SDS011;45672;51.612;5.536;2023-09-19T14:02:21;3.63;;;1.30;;
59786;SDS011;45672;51.612;5.536;2023-09-19T14:04:50;4.63;;;1.30;;
59786;SDS011;45672;51.612;5.536;2023-09-19T14:07:16;3.97;;;1.10;;
59786;SDS011;45672;51.612;5.536;2023-09-19T14:09:42;3.90;;;1.35;;
59786;SDS011;45672;51.612;5.536;2023-09-19T14:12:08;7.20;;;1.40;;
59786;SDS011;45672;51.612;5.536;2023-09-19T14:14:34;4.72;;;1.48;;
59786;SDS011;45672;51.612;5.536;2023-09-19T14:16:59;3.63;;;1.10;;
59786;SDS011;45672;51.612;5.536;2023-09-19T14:19:27;2.38;;;1.20;;
59786;SDS011;45672;51.612;5.536;2023-09-19T14:21:53;6.30;;;1.20;;
59786;SDS011;45672;51.612;5.536;2023-09-19T14:24:21;5.25;;;1.50;;
59786;SDS011;45672;51.612;5.536;2023-09-19T14:26:47;7.82;;;1.33;;
59786;SDS011;45672;51.612;5.536;2023-09-19T14:29:14;6.80;;;1.35;;
59786;SDS011;45672;51.612;5.536;2023-09-19T14:31:39;7.40;;;1.40;;
59786;SDS011;45672;51.612;5.536;2023-09-19T14:34:05;6.32;;;1.10;;
59786;SDS011;45672;51.612;5.536;2023-09-19T14:36:31;4.28;;;1.40;;
59786;SDS011;45672;51.612;5.536;2023-09-19T14:38:57;2.80;;;1.20;;
59786;SDS011;45672;51.612;5.536;2023-09-19T14:41:22;9.68;;;1.10;;
59786;SDS011;45672;51.612;5.536;2023-09-19T14:43:50;3.15;;;1.00;;
59786;SDS011;45672;51.612;5.536;2023-09-19T14:46:16;9.15;;;1.30;;
59786;SDS011;45672;51.612;5.536;2023-09-19T14:48:43;4.22;;;1.20;;
59786;SDS011;45672;51.612;5.536;2023-09-19T14:51:09;4.43;;;1.52;;
59786;SDS011;45672;51.612;5.536;2023-09-19T14:53:36;4.88;;;1.20;;
59786;SDS011;45672;51.612;5.536;2023-09-19T14:56:04;3.35;;;1.00;;
59786;SDS011;45672;51.612;5.536;2023-09-19T14:58:32;8.18;;;1.23;;
59786;SDS011;45672;51.612;5.536;2023-09-19T15:01:11;4.47;;;1.33;;
59786;SDS011;45672;51.612;5.536;2023-09-19T15:03:39;3.35;;;1.38;;
59786;SDS011;45672;51.612;5.536;2023-09-19T15:06:06;3.33;;;1.30;;
59786;SDS011;45672;51.612;5.536;2023-09-19T15:08:37;7.45;;;1.63;;
59786;SDS011;45672;51.612;5.536;2023-09-19T15:11:05;3.10;;;1.17;;
59786;SDS011;45672;51.612;5.536;2023-09-19T15:13:35;6.53;;;1.35;;
59786;SDS011;45672;51.612;5.536;2023-09-19T15:16:02;2.88;;;0.90;;
59786;SDS011;45672;51.612;5.536;2023-09-19T15:18:29;4.20;;;1.20;;
59786;SDS011;45672;51.612;5.536;2023-09-19T15:20:55;6.25;;;1.52;;
59786;SDS011;45672;51.612;5.536;2023-09-19T15:23:21;5.88;;;1.30;;
59786;SDS011;45672;51.612;5.536;2023-09-19T15:25:50;3.53;;;0.93;;
59786;SDS011;45672;51.612;5.536;2023-09-19T15:28:15;11.00;;;1.50;;
59786;SDS011;45672;51.612;5.536;2023-09-19T15:30:41;5.45;;;1.38;;
59786;SDS011;45672;51.612;5.536;2023-09-19T15:33:06;5.60;;;1.20;;
59786;SDS011;45672;51.612;5.536;2023-09-19T15:35:32;3.97;;;1.20;;
59786;SDS011;45672;51.612;5.536;2023-09-19T15:37:58;6.68;;;1.35;;
59786;SDS011;45672;51.612;5.536;2023-09-19T15:40:25;4.70;;;1.30;;
59786;SDS011;45672;51.612;5.536;2023-09-19T15:42:52;2.78;;;1.20;;
59786;SDS011;45672;51.612;5.536;2023-09-19T15:45:19;3.83;;;1.20;;
59786;SDS011;45672;51.612;5.536;2023-09-19T15:47:44;2.40;;;1.10;;
59786;SDS011;45672;51.612;5.536;2023-09-19T15:50:10;4.07;;;1.17;;
59786;SDS011;45672;51.612;5.536;2023-09-19T15:52:38;2.85;;;1.27;;
59786;SDS011;45672;51.612;5.536;2023-09-19T15:55:05;4.35;;;1.30;;